sensor_id;sensor_type;location;lat;lon;timestamp;temperature;humidity
64715;DHT22;51144;53.002;6.506;2022-12-24T00:02:08;7.00;99.90
64715;DHT22;51144;53.002;6.506;2022-12-24T00:04:34;7.00;99.90
64715;DHT22;51144;53.002;6.506;2022-12-24T00:07:00;7.00;99.90
64715;DHT22;51144;53.002;6.506;2022-12-24T00:09:25;7.00;99.90
64715;DHT22;51144;53.002;6.506;2022-12-24T00:11:51;7.00;99.90
64715;DHT22;51144;53.002;6.506;2022-12-24T00:14:16;7.00;99.90
64715;DHT22;51144;53.002;6.506;2022-12-24T00:16:42;7.00;99.90
64715;DHT22;51144;53.002;6.506;2022-12-24T00:19:08;7.00;99.90
64715;DHT22;51144;53.002;6.506;2022-12-24T00:21:33;7.00;99.90
64715;DHT22;51144;53.002;6.506;2022-12-24T00:23:59;7.00;99.90
64715;DHT22;51144;53.002;6.506;2022-12-24T00:26:24;7.00;99.90
64715;DHT22;51144;53.002;6.506;2022-12-24T00:28:50;7.00;99.90
64715;DHT22;51144;53.002;6.506;2022-12-24T00:31:17;7.00;99.90
64715;DHT22;51144;53.002;6.506;2022-12-24T00:33:45;7.00;99.90
64715;DHT22;51144;53.002;6.506;2022-12-24T00:36:11;7.00;99.90
64715;DHT22;51144;53.002;6.506;2022-12-24T00:38:37;7.00;99.90
64715;DHT22;51144;53.002;6.506;2022-12-24T00:41:04;7.00;99.90
64715;DHT22;51144;53.002;6.506;2022-12-24T00:43:30;7.00;99.90
64715;DHT22;51144;53.002;6.506;2022-12-24T00:45:57;7.00;99.90
64715;DHT22;51144;53.002;6.506;2022-12-24T00:48:23;7.00;99.90
64715;DHT22;51144;53.002;6.506;2022-12-24T00:50:49;7.00;99.90
64715;DHT22;51144;53.002;6.506;2022-12-24T00:53:16;7.00;99.90
64715;DHT22;51144;53.002;6.506;2022-12-24T00:55:41;7.00;99.90
64715;DHT22;51144;53.002;6.506;2022-12-24T00:58:07;7.00;99.90
64715;DHT22;51144;53.002;6.506;2022-12-24T01:00:33;7.00;99.90
64715;DHT22;51144;53.002;6.506;2022-12-24T01:02:58;7.00;99.90
64715;DHT22;51144;53.002;6.506;2022-12-24T01:05:24;7.00;99.90
64715;DHT22;51144;53.002;6.506;2022-12-24T01:07:50;7.00;99.90
64715;DHT22;51144;53.002;6.506;2022-12-24T01:10:18;7.00;99.90
64715;DHT22;51144;53.002;6.506;2022-12-24T01:12:45;7.00;99.90
64715;DHT22;51144;53.002;6.506;2022-12-24T01:15:12;7.00;99.90
64715;DHT22;51144;53.002;6.506;2022-12-24T01:17:39;7.00;99.90
64715;DHT22;51144;53.002;6.506;2022-12-24T01:20:07;7.00;99.90
64715;DHT22;51144;53.002;6.506;2022-12-24T01:22:33;7.00;99.90
64715;DHT22;51144;53.002;6.506;2022-12-24T01:24:59;7.00;99.90
64715;DHT22;51144;53.002;6.506;2022-12-24T01:27:25;7.00;99.90
64715;DHT22;51144;53.002;6.506;2022-12-24T01:29:50;7.00;99.90
64715;DHT22;51144;53.002;6.506;2022-12-24T01:32:16;7.00;99.90
64715;DHT22;51144;53.002;6.506;2022-12-24T01:34:42;7.00;99.90
64715;DHT22;51144;53.002;6.506;2022-12-24T01:37:07;7.00;99.90
64715;DHT22;51144;53.002;6.506;2022-12-24T01:39:33;7.00;99.90
64715;DHT22;51144;53.002;6.506;2022-12-24T01:41:59;7.00;99.90
64715;DHT22;51144;53.002;6.506;2022-12-24T01:44:46;7.00;99.90
64715;DHT22;51144;53.002;6.506;2022-12-24T01:47:25;7.00;99.90
64715;DHT22;51144;53.002;6.506;2022-12-24T01:50:03;7.00;99.90
64715;DHT22;51144;53.002;6.506;2022-12-24T01:52:37;7.00;99.90
64715;DHT22;51144;53.002;6.506;2022-12-24T01:55:06;7.00;99.90
64715;DHT22;51144;53.002;6.506;2022-12-24T01:57:37;7.00;99.90
64715;DHT22;51144;53.002;6.506;2022-12-24T02:00:07;7.00;99.90
64715;DHT22;51144;53.002;6.506;2022-12-24T02:02:34;7.00;99.90
64715;DHT22;51144;53.002;6.506;2022-12-24T02:05:05;7.00;99.90
64715;DHT22;51144;53.002;6.506;2022-12-24T02:07:33;7.00;99.90
64715;DHT22;51144;53.002;6.506;2022-12-24T02:10:00;7.00;99.90
64715;DHT22;51144;53.002;6.506;2022-12-24T02:12:30;7.00;99.90
64715;DHT22;51144;53.002;6.506;2022-12-24T02:14:57;7.00;99.90
64715;DHT22;51144;53.002;6.506;2022-12-24T02:17:30;7.00;99.90
64715;DHT22;51144;53.002;6.506;2022-12-24T02:22:59;7.10;99.90
64715;DHT22;51144;53.002;6.506;2022-12-24T02:30:48;7.30;99.90
64715;DHT22;51144;53.002;6.506;2022-12-24T02:33:54;7.30;99.90
64715;DHT22;51144;53.002;6.506;2022-12-24T02:36:29;7.50;99.90
64715;DHT22;51144;53.002;6.506;2022-12-24T02:39:03;7.50;99.90
64715;DHT22;51144;53.002;6.506;2022-12-24T02:41:34;7.50;99.90
64715;DHT22;51144;53.002;6.506;2022-12-24T02:44:23;7.60;99.90
64715;DHT22;51144;53.002;6.506;2022-12-24T02:46:50;7.60;99.90
64715;DHT22;51144;53.002;6.506;2022-12-24T02:49:16;7.60;99.90
64715;DHT22;51144;53.002;6.506;2022-12-24T02:51:42;7.70;99.90
64715;DHT22;51144;53.002;6.506;2022-12-24T02:54:07;7.80;99.90
64715;DHT22;51144;53.002;6.506;2022-12-24T02:59:30;7.80;99.90
64715;DHT22;51144;53.002;6.506;2022-12-24T03:02:03;7.90;99.90
64715;DHT22;51144;53.002;6.506;2022-12-24T03:04:47;7.90;99.90
64715;DHT22;51144;53.002;6.506;2022-12-24T03:07:22;8.00;99.90
64715;DHT22;51144;53.002;6.506;2022-12-24T03:10:19;8.00;99.90
64715;DHT22;51144;53.002;6.506;2022-12-24T03:12:49;8.00;99.90
64715;DHT22;51144;53.002;6.506;2022-12-24T03:15:19;8.00;99.90
64715;DHT22;51144;53.002;6.506;2022-12-24T03:17:47;8.10;99.90
64715;DHT22;51144;53.002;6.506;2022-12-24T03:20:18;8.10;99.90
64715;DHT22;51144;53.002;6.506;2022-12-24T03:22:45;8.10;99.90
64715;DHT22;51144;53.002;6.506;2022-12-24T03:25:11;8.10;99.90
64715;DHT22;51144;53.002;6.506;2022-12-24T03:27:37;8.10;99.90
64715;DHT22;51144;53.002;6.506;2022-12-24T03:30:07;8.10;99.90
64715;DHT22;51144;53.002;6.506;2022-12-24T03:32:33;8.10;99.90
64715;DHT22;51144;53.002;6.506;2022-12-24T03:34:59;8.10;99.90
64715;DHT22;51144;53.002;6.506;2022-12-24T03:37:25;8.10;99.90
64715;DHT22;51144;53.002;6.506;2022-12-24T03:39:51;8.00;99.90
64715;DHT22;51144;53.002;6.506;2022-12-24T03:42:17;8.10;99.90
64715;DHT22;51144;53.002;6.506;2022-12-24T03:44:43;8.10;99.90
64715;DHT22;51144;53.002;6.506;2022-12-24T03:47:08;8.10;99.90
64715;DHT22;51144;53.002;6.506;2022-12-24T03:49:34;8.10;99.90
64715;DHT22;51144;53.002;6.506;2022-12-24T03:51:59;8.10;99.90
64715;DHT22;51144;53.002;6.506;2022-12-24T03:54:25;8.10;99.90
64715;DHT22;51144;53.002;6.506;2022-12-24T03:56:51;8.10;99.90
64715;DHT22;51144;53.002;6.506;2022-12-24T03:59:16;8.10;99.90
64715;DHT22;51144;53.002;6.506;2022-12-24T04:01:42;8.10;99.90
64715;DHT22;51144;53.002;6.506;2022-12-24T04:04:08;8.10;99.90
64715;DHT22;51144;53.002;6.506;2022-12-24T04:06:33;8.00;99.90
64715;DHT22;51144;53.002;6.506;2022-12-24T04:08:59;8.10;99.90
64715;DHT22;51144;53.002;6.506;2022-12-24T04:11:29;8.00;99.90
64715;DHT22;51144;53.002;6.506;2022-12-24T04:13:55;8.10;99.90
64715;DHT22;51144;53.002;6.506;2022-12-24T04:16:21;8.10;99.90
64715;DHT22;51144;53.002;6.506;2022-12-24T04:18:46;8.10;99.90
64715;DHT22;51144;53.002;6.506;2022-12-24T04:21:12;8.10;99.90
64715;DHT22;51144;53.002;6.506;2022-12-24T04:23:39;8.10;99.90
64715;DHT22;51144;53.002;6.506;2022-12-24T04:26:07;8.10;99.90
64715;DHT22;51144;53.002;6.506;2022-12-24T04:28:33;8.10;99.90
64715;DHT22;51144;53.002;6.506;2022-12-24T04:30:59;8.10;99.90
64715;DHT22;51144;53.002;6.506;2022-12-24T04:33:25;8.20;99.90
64715;DHT22;51144;53.002;6.506;2022-12-24T04:35:51;8.10;99.90
64715;DHT22;51144;53.002;6.506;2022-12-24T04:38:17;8.20;99.90
64715;DHT22;51144;53.002;6.506;2022-12-24T04:40:43;8.20;99.90
64715;DHT22;51144;53.002;6.506;2022-12-24T04:43:09;8.20;99.90
64715;DHT22;51144;53.002;6.506;2022-12-24T04:45:34;8.20;99.90
64715;DHT22;51144;53.002;6.506;2022-12-24T04:48:00;8.20;99.90
64715;DHT22;51144;53.002;6.506;2022-12-24T04:50:26;8.20;99.90
64715;DHT22;51144;53.002;6.506;2022-12-24T04:52:51;8.20;99.90
64715;DHT22;51144;53.002;6.506;2022-12-24T04:55:17;8.20;99.90
64715;DHT22;51144;53.002;6.506;2022-12-24T04:57:42;8.20;99.90
64715;DHT22;51144;53.002;6.506;2022-12-24T05:00:09;8.20;99.90
64715;DHT22;51144;53.002;6.506;2022-12-24T05:02:35;8.10;99.90
64715;DHT22;51144;53.002;6.506;2022-12-24T05:05:01;8.10;99.90
64715;DHT22;51144;53.002;6.506;2022-12-24T05:07:27;8.10;99.90
64715;DHT22;51144;53.002;6.506;2022-12-24T05:09:53;8.10;99.90
64715;DHT22;51144;53.002;6.506;2022-12-24T05:12:18;8.10;99.90
64715;DHT22;51144;53.002;6.506;2022-12-24T05:14:44;8.00;99.90
64715;DHT22;51144;53.002;6.506;2022-12-24T05:17:09;8.00;99.90
64715;DHT22;51144;53.002;6.506;2022-12-24T05:19:35;8.00;99.90
64715;DHT22;51144;53.002;6.506;2022-12-24T05:22:01;7.90;99.90
64715;DHT22;51144;53.002;6.506;2022-12-24T05:24:45;8.00;99.90
64715;DHT22;51144;53.002;6.506;2022-12-24T05:27:29;7.90;99.90
64715;DHT22;51144;53.002;6.506;2022-12-24T05:29:55;7.90;99.90
64715;DHT22;51144;53.002;6.506;2022-12-24T05:32:21;7.90;99.90
64715;DHT22;51144;53.002;6.506;2022-12-24T05:34:46;7.90;99.90
64715;DHT22;51144;53.002;6.506;2022-12-24T05:37:12;8.00;99.90
64715;DHT22;51144;53.002;6.506;2022-12-24T05:39:37;7.90;99.90
64715;DHT22;51144;53.002;6.506;2022-12-24T05:42:03;8.00;99.90
64715;DHT22;51144;53.002;6.506;2022-12-24T05:44:29;7.90;99.90
64715;DHT22;51144;53.002;6.506;2022-12-24T05:46:54;7.90;99.90
64715;DHT22;51144;53.002;6.506;2022-12-24T05:49:20;7.90;99.90
64715;DHT22;51144;53.002;6.506;2022-12-24T05:51:45;7.90;99.90
64715;DHT22;51144;53.002;6.506;2022-12-24T05:54:11;7.90;99.90
64715;DHT22;51144;53.002;6.506;2022-12-24T05:56:37;7.90;99.90
64715;DHT22;51144;53.002;6.506;2022-12-24T05:59:02;7.80;99.90
64715;DHT22;51144;53.002;6.506;2022-12-24T06:01:28;7.90;99.90
64715;DHT22;51144;53.002;6.506;2022-12-24T06:03:55;7.90;99.90
64715;DHT22;51144;53.002;6.506;2022-12-24T06:06:24;7.90;99.90
64715;DHT22;51144;53.002;6.506;2022-12-24T06:08:51;7.90;99.90
64715;DHT22;51144;53.002;6.506;2022-12-24T06:11:19;8.00;99.90
64715;DHT22;51144;53.002;6.506;2022-12-24T06:13:45;8.00;99.90
64715;DHT22;51144;53.002;6.506;2022-12-24T06:16:14;8.00;99.90
64715;DHT22;51144;53.002;6.506;2022-12-24T06:18:40;8.00;99.90
64715;DHT22;51144;53.002;6.506;2022-12-24T06:21:06;8.00;99.90
64715;DHT22;51144;53.002;6.506;2022-12-24T06:23:34;8.00;99.90
64715;DHT22;51144;53.002;6.506;2022-12-24T06:26:00;8.00;99.90
64715;DHT22;51144;53.002;6.506;2022-12-24T06:28:30;8.00;99.90
64715;DHT22;51144;53.002;6.506;2022-12-24T06:30:56;8.00;99.90
64715;DHT22;51144;53.002;6.506;2022-12-24T06:33:22;8.00;99.90
64715;DHT22;51144;53.002;6.506;2022-12-24T06:35:48;8.00;99.90
64715;DHT22;51144;53.002;6.506;2022-12-24T06:38:15;8.00;99.90
64715;DHT22;51144;53.002;6.506;2022-12-24T06:40:42;8.00;99.90
64715;DHT22;51144;53.002;6.506;2022-12-24T06:43:08;8.00;99.90
64715;DHT22;51144;53.002;6.506;2022-12-24T06:45:34;8.00;99.90
64715;DHT22;51144;53.002;6.506;2022-12-24T06:47:59;8.00;99.90
64715;DHT22;51144;53.002;6.506;2022-12-24T06:50:25;8.00;99.90
64715;DHT22;51144;53.002;6.506;2022-12-24T06:52:51;8.00;99.90
64715;DHT22;51144;53.002;6.506;2022-12-24T06:55:17;8.00;99.90
64715;DHT22;51144;53.002;6.506;2022-12-24T06:57:43;8.00;99.90
64715;DHT22;51144;53.002;6.506;2022-12-24T07:00:09;8.00;99.90
64715;DHT22;51144;53.002;6.506;2022-12-24T07:02:42;8.10;99.90
64715;DHT22;51144;53.002;6.506;2022-12-24T07:05:08;8.10;99.90
64715;DHT22;51144;53.002;6.506;2022-12-24T07:07:36;8.10;99.90
64715;DHT22;51144;53.002;6.506;2022-12-24T07:10:03;8.10;99.90
64715;DHT22;51144;53.002;6.506;2022-12-24T07:12:28;8.10;99.90
64715;DHT22;51144;53.002;6.506;2022-12-24T07:14:54;8.20;99.90
64715;DHT22;51144;53.002;6.506;2022-12-24T07:17:20;8.10;99.90
64715;DHT22;51144;53.002;6.506;2022-12-24T07:19:45;8.10;99.90
64715;DHT22;51144;53.002;6.506;2022-12-24T07:22:11;8.20;99.90
64715;DHT22;51144;53.002;6.506;2022-12-24T07:24:37;8.20;99.90
64715;DHT22;51144;53.002;6.506;2022-12-24T07:27:02;8.20;99.90
64715;DHT22;51144;53.002;6.506;2022-12-24T07:29:28;8.30;99.90
64715;DHT22;51144;53.002;6.506;2022-12-24T07:31:53;8.30;99.90
64715;DHT22;51144;53.002;6.506;2022-12-24T07:34:19;8.30;99.90
64715;DHT22;51144;53.002;6.506;2022-12-24T07:36:45;8.30;99.90
64715;DHT22;51144;53.002;6.506;2022-12-24T07:39:10;8.30;99.90
64715;DHT22;51144;53.002;6.506;2022-12-24T07:41:36;8.30;99.90
64715;DHT22;51144;53.002;6.506;2022-12-24T07:44:01;8.30;99.90
64715;DHT22;51144;53.002;6.506;2022-12-24T07:46:27;8.30;99.90
64715;DHT22;51144;53.002;6.506;2022-12-24T07:48:53;8.30;99.90
64715;DHT22;51144;53.002;6.506;2022-12-24T07:51:18;8.30;99.90
64715;DHT22;51144;53.002;6.506;2022-12-24T07:53:44;8.30;99.90
64715;DHT22;51144;53.002;6.506;2022-12-24T07:56:15;8.40;99.90
64715;DHT22;51144;53.002;6.506;2022-12-24T07:58:41;8.40;99.90
64715;DHT22;51144;53.002;6.506;2022-12-24T08:01:07;8.40;99.90
64715;DHT22;51144;53.002;6.506;2022-12-24T08:03:33;8.40;99.90
64715;DHT22;51144;53.002;6.506;2022-12-24T08:05:59;8.40;99.90
64715;DHT22;51144;53.002;6.506;2022-12-24T08:08:25;8.40;99.90
64715;DHT22;51144;53.002;6.506;2022-12-24T08:10:51;8.40;99.90
64715;DHT22;51144;53.002;6.506;2022-12-24T08:13:16;8.50;99.90
64715;DHT22;51144;53.002;6.506;2022-12-24T08:15:43;8.50;99.90
64715;DHT22;51144;53.002;6.506;2022-12-24T08:18:09;8.50;99.90
64715;DHT22;51144;53.002;6.506;2022-12-24T08:20:37;8.50;99.90
64715;DHT22;51144;53.002;6.506;2022-12-24T08:23:03;8.50;99.90
64715;DHT22;51144;53.002;6.506;2022-12-24T08:25:29;8.50;99.90
64715;DHT22;51144;53.002;6.506;2022-12-24T08:27:55;8.50;99.90
64715;DHT22;51144;53.002;6.506;2022-12-24T08:30:21;8.50;99.90
64715;DHT22;51144;53.002;6.506;2022-12-24T08:32:46;8.50;99.90
64715;DHT22;51144;53.002;6.506;2022-12-24T08:35:12;8.50;99.90
64715;DHT22;51144;53.002;6.506;2022-12-24T08:37:38;8.60;99.90
64715;DHT22;51144;53.002;6.506;2022-12-24T08:40:03;8.50;99.90
64715;DHT22;51144;53.002;6.506;2022-12-24T08:42:29;8.50;99.90
64715;DHT22;51144;53.002;6.506;2022-12-24T08:44:55;8.50;99.90
64715;DHT22;51144;53.002;6.506;2022-12-24T08:47:20;8.50;99.90
64715;DHT22;51144;53.002;6.506;2022-12-24T08:49:46;8.50;99.90
64715;DHT22;51144;53.002;6.506;2022-12-24T08:52:12;8.60;99.90
64715;DHT22;51144;53.002;6.506;2022-12-24T08:54:37;8.60;99.90
64715;DHT22;51144;53.002;6.506;2022-12-24T08:57:03;8.60;99.90
64715;DHT22;51144;53.002;6.506;2022-12-24T08:59:28;8.60;99.90
64715;DHT22;51144;53.002;6.506;2022-12-24T09:01:54;8.60;99.90
64715;DHT22;51144;53.002;6.506;2022-12-24T09:04:20;8.60;99.90
64715;DHT22;51144;53.002;6.506;2022-12-24T09:06:45;8.60;99.90
64715;DHT22;51144;53.002;6.506;2022-12-24T09:09:11;8.60;99.90
64715;DHT22;51144;53.002;6.506;2022-12-24T09:11:36;8.70;99.90
64715;DHT22;51144;53.002;6.506;2022-12-24T09:14:02;8.70;99.90
64715;DHT22;51144;53.002;6.506;2022-12-24T09:16:28;8.80;99.90
64715;DHT22;51144;53.002;6.506;2022-12-24T09:18:53;8.80;99.90
64715;DHT22;51144;53.002;6.506;2022-12-24T09:21:20;8.80;99.90
64715;DHT22;51144;53.002;6.506;2022-12-24T09:23:47;8.90;99.90
64715;DHT22;51144;53.002;6.506;2022-12-24T09:28:43;8.90;99.90
64715;DHT22;51144;53.002;6.506;2022-12-24T09:31:10;8.90;99.90
64715;DHT22;51144;53.002;6.506;2022-12-24T09:33:38;9.00;99.90
64715;DHT22;51144;53.002;6.506;2022-12-24T09:36:05;9.00;99.90
64715;DHT22;51144;53.002;6.506;2022-12-24T09:38:32;9.00;99.90
64715;DHT22;51144;53.002;6.506;2022-12-24T09:40:58;9.00;99.90
64715;DHT22;51144;53.002;6.506;2022-12-24T09:43:30;9.00;99.90
64715;DHT22;51144;53.002;6.506;2022-12-24T09:48:37;9.00;99.90
64715;DHT22;51144;53.002;6.506;2022-12-24T09:51:08;9.00;99.90
64715;DHT22;51144;53.002;6.506;2022-12-24T09:54:16;9.00;99.90
64715;DHT22;51144;53.002;6.506;2022-12-24T09:56:43;9.00;99.90
64715;DHT22;51144;53.002;6.506;2022-12-24T09:59:43;9.00;99.90
64715;DHT22;51144;53.002;6.506;2022-12-24T10:02:11;9.00;99.90
64715;DHT22;51144;53.002;6.506;2022-12-24T10:04:37;8.90;99.90
64715;DHT22;51144;53.002;6.506;2022-12-24T10:12:50;9.00;99.90
64715;DHT22;51144;53.002;6.506;2022-12-24T10:15:24;9.00;99.90
64715;DHT22;51144;53.002;6.506;2022-12-24T10:25:33;9.20;99.90
64715;DHT22;51144;53.002;6.506;2022-12-24T10:28:04;9.30;99.90
64715;DHT22;51144;53.002;6.506;2022-12-24T10:30:36;9.30;99.90
64715;DHT22;51144;53.002;6.506;2022-12-24T10:33:08;9.30;99.90
64715;DHT22;51144;53.002;6.506;2022-12-24T10:35:39;9.30;99.90
64715;DHT22;51144;53.002;6.506;2022-12-24T10:38:08;9.30;99.90
64715;DHT22;51144;53.002;6.506;2022-12-24T10:40:39;9.30;99.90
64715;DHT22;51144;53.002;6.506;2022-12-24T10:43:21;9.30;99.90
64715;DHT22;51144;53.002;6.506;2022-12-24T10:45:54;9.30;99.90
64715;DHT22;51144;53.002;6.506;2022-12-24T10:48:25;9.30;99.90
64715;DHT22;51144;53.002;6.506;2022-12-24T10:51:02;9.30;99.90
64715;DHT22;51144;53.002;6.506;2022-12-24T10:53:39;9.40;99.90
64715;DHT22;51144;53.002;6.506;2022-12-24T10:56:09;9.40;99.90
64715;DHT22;51144;53.002;6.506;2022-12-24T10:58:35;9.40;99.90
64715;DHT22;51144;53.002;6.506;2022-12-24T11:01:02;9.40;99.90
64715;DHT22;51144;53.002;6.506;2022-12-24T11:03:35;9.50;99.90
64715;DHT22;51144;53.002;6.506;2022-12-24T11:08:30;9.40;99.90
64715;DHT22;51144;53.002;6.506;2022-12-24T11:11:01;9.50;99.90
64715;DHT22;51144;53.002;6.506;2022-12-24T11:13:31;9.50;99.90
64715;DHT22;51144;53.002;6.506;2022-12-24T11:18:53;9.50;99.90
64715;DHT22;51144;53.002;6.506;2022-12-24T11:21:37;9.50;99.90
64715;DHT22;51144;53.002;6.506;2022-12-24T11:26:37;9.50;99.90
64715;DHT22;51144;53.002;6.506;2022-12-24T11:29:20;9.50;99.90
64715;DHT22;51144;53.002;6.506;2022-12-24T11:31:46;9.50;99.90
64715;DHT22;51144;53.002;6.506;2022-12-24T11:36:47;9.50;99.90
64715;DHT22;51144;53.002;6.506;2022-12-24T11:39:21;9.50;99.90
64715;DHT22;51144;53.002;6.506;2022-12-24T11:41:52;9.50;99.90
64715;DHT22;51144;53.002;6.506;2022-12-24T11:44:26;9.50;99.90
64715;DHT22;51144;53.002;6.506;2022-12-24T11:46:52;9.50;99.90
64715;DHT22;51144;53.002;6.506;2022-12-24T11:49:29;9.50;99.90
64715;DHT22;51144;53.002;6.506;2022-12-24T11:57:22;9.50;99.90
64715;DHT22;51144;53.002;6.506;2022-12-24T11:59:50;9.60;99.90
64715;DHT22;51144;53.002;6.506;2022-12-24T12:02:26;9.50;99.90
64715;DHT22;51144;53.002;6.506;2022-12-24T12:04:59;9.50;99.90
64715;DHT22;51144;53.002;6.506;2022-12-24T12:07:30;9.50;99.90
64715;DHT22;51144;53.002;6.506;2022-12-24T12:12:41;9.50;99.90
64715;DHT22;51144;53.002;6.506;2022-12-24T12:15:20;9.50;99.90
64715;DHT22;51144;53.002;6.506;2022-12-24T12:18:14;9.50;99.90
64715;DHT22;51144;53.002;6.506;2022-12-24T12:20:58;9.40;99.90
64715;DHT22;51144;53.002;6.506;2022-12-24T12:23:35;9.40;99.90
64715;DHT22;51144;53.002;6.506;2022-12-24T12:26:27;9.40;99.90
64715;DHT22;51144;53.002;6.506;2022-12-24T12:29:17;9.40;99.90
64715;DHT22;51144;53.002;6.506;2022-12-24T12:31:49;9.50;99.90
64715;DHT22;51144;53.002;6.506;2022-12-24T12:34:22;9.50;99.90
64715;DHT22;51144;53.002;6.506;2022-12-24T12:36:56;9.50;99.90
64715;DHT22;51144;53.002;6.506;2022-12-24T12:39:23;9.60;99.90
64715;DHT22;51144;53.002;6.506;2022-12-24T12:41:58;9.60;99.90
64715;DHT22;51144;53.002;6.506;2022-12-24T12:44:54;9.60;99.90
64715;DHT22;51144;53.002;6.506;2022-12-24T12:47:28;9.70;99.90
64715;DHT22;51144;53.002;6.506;2022-12-24T12:55:25;9.60;99.90
64715;DHT22;51144;53.002;6.506;2022-12-24T12:57:54;9.60;99.90
64715;DHT22;51144;53.002;6.506;2022-12-24T13:00:21;9.60;99.90
64715;DHT22;51144;53.002;6.506;2022-12-24T13:03:00;9.60;99.90
64715;DHT22;51144;53.002;6.506;2022-12-24T13:06:00;9.60;99.90
64715;DHT22;51144;53.002;6.506;2022-12-24T13:08:55;9.60;99.90
64715;DHT22;51144;53.002;6.506;2022-12-24T13:11:30;9.60;99.90
64715;DHT22;51144;53.002;6.506;2022-12-24T13:21:56;9.50;99.90
64715;DHT22;51144;53.002;6.506;2022-12-24T13:24:27;9.50;99.90
64715;DHT22;51144;53.002;6.506;2022-12-24T13:27:14;9.50;99.90
64715;DHT22;51144;53.002;6.506;2022-12-24T13:29:56;9.40;99.90
64715;DHT22;51144;53.002;6.506;2022-12-24T13:35:03;9.40;99.90
64715;DHT22;51144;53.002;6.506;2022-12-24T13:37:35;9.40;99.90
64715;DHT22;51144;53.002;6.506;2022-12-24T13:47:59;9.40;99.90
64715;DHT22;51144;53.002;6.506;2022-12-24T13:50:46;9.40;99.90
64715;DHT22;51144;53.002;6.506;2022-12-24T13:53:29;9.30;99.90
64715;DHT22;51144;53.002;6.506;2022-12-24T13:56:08;9.30;99.90
64715;DHT22;51144;53.002;6.506;2022-12-24T13:58:48;9.30;99.90
64715;DHT22;51144;53.002;6.506;2022-12-24T14:01:18;9.30;99.90
64715;DHT22;51144;53.002;6.506;2022-12-24T14:03:51;9.30;99.90
64715;DHT22;51144;53.002;6.506;2022-12-24T14:06:35;9.30;99.90
64715;DHT22;51144;53.002;6.506;2022-12-24T14:09:12;9.30;99.90
64715;DHT22;51144;53.002;6.506;2022-12-24T14:14:31;9.20;99.90
64715;DHT22;51144;53.002;6.506;2022-12-24T14:19:58;9.20;99.90
64715;DHT22;51144;53.002;6.506;2022-12-24T14:22:39;9.20;99.90
64715;DHT22;51144;53.002;6.506;2022-12-24T14:25:16;9.20;99.90
64715;DHT22;51144;53.002;6.506;2022-12-24T14:27:43;9.10;99.90
64715;DHT22;51144;53.002;6.506;2022-12-24T14:30:19;9.10;99.90
64715;DHT22;51144;53.002;6.506;2022-12-24T14:32:46;9.10;99.90
64715;DHT22;51144;53.002;6.506;2022-12-24T14:35:17;9.10;99.90
64715;DHT22;51144;53.002;6.506;2022-12-24T14:37:59;9.10;99.90
64715;DHT22;51144;53.002;6.506;2022-12-24T14:40:27;9.00;99.90
64715;DHT22;51144;53.002;6.506;2022-12-24T14:43:06;9.00;99.90
64715;DHT22;51144;53.002;6.506;2022-12-24T14:45:43;9.00;99.90
64715;DHT22;51144;53.002;6.506;2022-12-24T14:48:39;9.00;99.90
64715;DHT22;51144;53.002;6.506;2022-12-24T14:56:14;8.90;99.90
64715;DHT22;51144;53.002;6.506;2022-12-24T14:58:42;8.90;99.90
64715;DHT22;51144;53.002;6.506;2022-12-24T15:01:27;8.80;99.90
64715;DHT22;51144;53.002;6.506;2022-12-24T15:06:53;8.80;99.90
64715;DHT22;51144;53.002;6.506;2022-12-24T15:09:25;8.70;99.90
64715;DHT22;51144;53.002;6.506;2022-12-24T15:11:54;8.70;99.90
64715;DHT22;51144;53.002;6.506;2022-12-24T15:14:22;8.70;99.90
64715;DHT22;51144;53.002;6.506;2022-12-24T15:16:55;8.70;99.90
64715;DHT22;51144;53.002;6.506;2022-12-24T15:19:26;8.60;99.90
64715;DHT22;51144;53.002;6.506;2022-12-24T15:21:53;8.60;99.90
64715;DHT22;51144;53.002;6.506;2022-12-24T15:24:45;8.60;99.90
64715;DHT22;51144;53.002;6.506;2022-12-24T15:27:26;8.50;99.90
64715;DHT22;51144;53.002;6.506;2022-12-24T15:29:56;8.50;99.90
64715;DHT22;51144;53.002;6.506;2022-12-24T15:32:22;8.50;99.90
64715;DHT22;51144;53.002;6.506;2022-12-24T15:34:54;8.40;99.90
64715;DHT22;51144;53.002;6.506;2022-12-24T15:37:56;8.40;99.90
64715;DHT22;51144;53.002;6.506;2022-12-24T15:40:23;8.30;99.90
64715;DHT22;51144;53.002;6.506;2022-12-24T15:42:50;8.30;99.90
64715;DHT22;51144;53.002;6.506;2022-12-24T15:45:18;8.20;99.90
64715;DHT22;51144;53.002;6.506;2022-12-24T15:47:53;8.20;99.90
64715;DHT22;51144;53.002;6.506;2022-12-24T15:52:54;8.00;99.90
64715;DHT22;51144;53.002;6.506;2022-12-24T15:55:58;8.00;99.90
64715;DHT22;51144;53.002;6.506;2022-12-24T15:58:29;7.90;99.90
64715;DHT22;51144;53.002;6.506;2022-12-24T16:01:25;7.90;99.90
64715;DHT22;51144;53.002;6.506;2022-12-24T16:06:20;7.80;99.90
64715;DHT22;51144;53.002;6.506;2022-12-24T16:08:46;7.80;99.90
64715;DHT22;51144;53.002;6.506;2022-12-24T16:11:21;7.80;99.90
64715;DHT22;51144;53.002;6.506;2022-12-24T16:16:31;7.80;99.90
64715;DHT22;51144;53.002;6.506;2022-12-24T16:18:59;7.90;99.90
64715;DHT22;51144;53.002;6.506;2022-12-24T16:21:34;7.90;99.90
64715;DHT22;51144;53.002;6.506;2022-12-24T16:26:37;7.90;99.90
64715;DHT22;51144;53.002;6.506;2022-12-24T16:29:04;7.90;99.90
64715;DHT22;51144;53.002;6.506;2022-12-24T16:31:36;7.80;99.90
64715;DHT22;51144;53.002;6.506;2022-12-24T16:34:04;7.80;99.90
64715;DHT22;51144;53.002;6.506;2022-12-24T16:36:31;7.80;99.90
64715;DHT22;51144;53.002;6.506;2022-12-24T16:38:57;7.70;99.90
64715;DHT22;51144;53.002;6.506;2022-12-24T16:41:42;7.70;99.90
64715;DHT22;51144;53.002;6.506;2022-12-24T16:44:26;7.60;99.90
64715;DHT22;51144;53.002;6.506;2022-12-24T16:46:53;7.60;99.90
64715;DHT22;51144;53.002;6.506;2022-12-24T16:49:20;7.50;99.90
64715;DHT22;51144;53.002;6.506;2022-12-24T16:51:46;7.50;99.90
64715;DHT22;51144;53.002;6.506;2022-12-24T16:54:13;7.50;99.90
64715;DHT22;51144;53.002;6.506;2022-12-24T16:56:40;7.40;99.90
64715;DHT22;51144;53.002;6.506;2022-12-24T16:59:17;7.40;99.90
64715;DHT22;51144;53.002;6.506;2022-12-24T17:01:44;7.40;99.90
64715;DHT22;51144;53.002;6.506;2022-12-24T17:04:10;7.40;99.90
64715;DHT22;51144;53.002;6.506;2022-12-24T17:06:36;7.30;99.90
64715;DHT22;51144;53.002;6.506;2022-12-24T17:09:02;7.30;99.90
64715;DHT22;51144;53.002;6.506;2022-12-24T17:11:27;7.30;99.90
64715;DHT22;51144;53.002;6.506;2022-12-24T17:13:53;7.20;99.90
64715;DHT22;51144;53.002;6.506;2022-12-24T17:16:19;7.20;99.90
64715;DHT22;51144;53.002;6.506;2022-12-24T17:18:44;7.20;99.90
64715;DHT22;51144;53.002;6.506;2022-12-24T17:21:10;7.20;99.90
64715;DHT22;51144;53.002;6.506;2022-12-24T17:23:39;7.20;99.90
64715;DHT22;51144;53.002;6.506;2022-12-24T17:26:06;7.10;99.90
64715;DHT22;51144;53.002;6.506;2022-12-24T17:28:32;7.20;99.90
64715;DHT22;51144;53.002;6.506;2022-12-24T17:30:58;7.20;99.90
64715;DHT22;51144;53.002;6.506;2022-12-24T17:33:23;7.20;99.90
64715;DHT22;51144;53.002;6.506;2022-12-24T17:35:50;7.10;99.90
64715;DHT22;51144;53.002;6.506;2022-12-24T17:38:17;7.10;99.90